sensor_id;sensor_type;location;lat;lon;timestamp;temperature;humidity
47600;DHT22;33323;52.124;6.018;2023-08-08T00:01:33;14.70;99.90
47600;DHT22;33323;52.124;6.018;2023-08-08T00:04:01;14.60;99.90
47600;DHT22;33323;52.124;6.018;2023-08-08T00:06:28;14.60;99.90
47600;DHT22;33323;52.124;6.018;2023-08-08T00:08:55;14.50;99.90
47600;DHT22;33323;52.124;6.018;2023-08-08T00:11:22;14.50;99.90
47600;DHT22;33323;52.124;6.018;2023-08-08T00:13:49;14.60;99.90
47600;DHT22;33323;52.124;6.018;2023-08-08T00:16:17;14.50;99.90
47600;DHT22;33323;52.124;6.018;2023-08-08T00:18:44;14.40;99.90
47600;DHT22;33323;52.124;6.018;2023-08-08T00:21:11;14.30;99.90
47600;DHT22;33323;52.124;6.018;2023-08-08T00:23:38;14.30;99.90
47600;DHT22;33323;52.124;6.018;2023-08-08T00:26:05;14.30;99.90
47600;DHT22;33323;52.124;6.018;2023-08-08T00:28:32;14.30;99.90
47600;DHT22;33323;52.124;6.018;2023-08-08T00:30:59;14.20;99.90
47600;DHT22;33323;52.124;6.018;2023-08-08T00:33:26;14.20;99.90
47600;DHT22;33323;52.124;6.018;2023-08-08T00:35:53;14.10;99.90
47600;DHT22;33323;52.124;6.018;2023-08-08T00:38:20;14.10;99.90
47600;DHT22;33323;52.124;6.018;2023-08-08T00:40:47;14.10;99.90
47600;DHT22;33323;52.124;6.018;2023-08-08T00:43:14;14.10;99.90
47600;DHT22;33323;52.124;6.018;2023-08-08T00:45:42;14.10;99.90
47600;DHT22;33323;52.124;6.018;2023-08-08T00:48:11;14.10;99.90
47600;DHT22;33323;52.124;6.018;2023-08-08T00:50:42;14.00;99.90
47600;DHT22;33323;52.124;6.018;2023-08-08T00:53:11;14.10;99.90
47600;DHT22;33323;52.124;6.018;2023-08-08T00:55:38;14.10;99.90
47600;DHT22;33323;52.124;6.018;2023-08-08T00:58:06;14.10;99.90
47600;DHT22;33323;52.124;6.018;2023-08-08T01:00:33;14.10;99.90
47600;DHT22;33323;52.124;6.018;2023-08-08T01:03:00;14.10;99.90
47600;DHT22;33323;52.124;6.018;2023-08-08T01:05:33;14.10;99.90
47600;DHT22;33323;52.124;6.018;2023-08-08T01:08:05;14.10;99.90
47600;DHT22;33323;52.124;6.018;2023-08-08T01:10:40;14.10;99.90
47600;DHT22;33323;52.124;6.018;2023-08-08T01:13:16;14.10;99.90
47600;DHT22;33323;52.124;6.018;2023-08-08T01:15:46;14.10;99.90
47600;DHT22;33323;52.124;6.018;2023-08-08T01:18:16;14.00;99.90
47600;DHT22;33323;52.124;6.018;2023-08-08T01:20:44;14.00;99.90
47600;DHT22;33323;52.124;6.018;2023-08-08T01:23:25;14.00;99.90
47600;DHT22;33323;52.124;6.018;2023-08-08T01:25:56;14.00;99.90
47600;DHT22;33323;52.124;6.018;2023-08-08T01:28:26;14.00;99.90
47600;DHT22;33323;52.124;6.018;2023-08-08T01:30:53;14.00;99.90
47600;DHT22;33323;52.124;6.018;2023-08-08T01:33:21;14.00;99.90
47600;DHT22;33323;52.124;6.018;2023-08-08T01:35:54;14.10;99.90
47600;DHT22;33323;52.124;6.018;2023-08-08T01:38:31;14.00;99.90
47600;DHT22;33323;52.124;6.018;2023-08-08T01:41:00;14.00;99.90
47600;DHT22;33323;52.124;6.018;2023-08-08T01:43:29;14.00;99.90
47600;DHT22;33323;52.124;6.018;2023-08-08T01:45:58;14.00;99.90
47600;DHT22;33323;52.124;6.018;2023-08-08T01:48:28;14.10;99.90
47600;DHT22;33323;52.124;6.018;2023-08-08T01:50:55;14.10;99.90
47600;DHT22;33323;52.124;6.018;2023-08-08T01:53:22;14.20;99.90
47600;DHT22;33323;52.124;6.018;2023-08-08T01:55:49;14.20;99.90
47600;DHT22;33323;52.124;6.018;2023-08-08T01:58:16;14.20;99.90
47600;DHT22;33323;52.124;6.018;2023-08-08T02:00:43;14.10;99.90
47600;DHT22;33323;52.124;6.018;2023-08-08T02:03:12;14.20;99.90
47600;DHT22;33323;52.124;6.018;2023-08-08T02:05:39;14.10;99.90
47600;DHT22;33323;52.124;6.018;2023-08-08T02:08:07;14.10;99.90
47600;DHT22;33323;52.124;6.018;2023-08-08T02:10:34;14.20;99.90
47600;DHT22;33323;52.124;6.018;2023-08-08T02:13:01;14.20;99.90
47600;DHT22;33323;52.124;6.018;2023-08-08T02:15:28;14.10;99.90
47600;DHT22;33323;52.124;6.018;2023-08-08T02:17:59;14.20;99.90
47600;DHT22;33323;52.124;6.018;2023-08-08T02:20:26;14.10;99.90
47600;DHT22;33323;52.124;6.018;2023-08-08T02:22:53;14.10;99.90
47600;DHT22;33323;52.124;6.018;2023-08-08T02:25:20;14.10;99.90
47600;DHT22;33323;52.124;6.018;2023-08-08T02:27:47;14.10;99.90
47600;DHT22;33323;52.124;6.018;2023-08-08T02:30:14;14.20;99.90
47600;DHT22;33323;52.124;6.018;2023-08-08T02:32:42;14.10;99.90
47600;DHT22;33323;52.124;6.018;2023-08-08T02:35:09;14.10;99.90
47600;DHT22;33323;52.124;6.018;2023-08-08T02:37:36;14.10;99.90
47600;DHT22;33323;52.124;6.018;2023-08-08T02:40:05;14.10;99.90
47600;DHT22;33323;52.124;6.018;2023-08-08T02:42:33;14.00;99.90
47600;DHT22;33323;52.124;6.018;2023-08-08T02:45:00;14.10;99.90
47600;DHT22;33323;52.124;6.018;2023-08-08T02:47:27;14.10;99.90
47600;DHT22;33323;52.124;6.018;2023-08-08T02:49:54;14.00;99.90
47600;DHT22;33323;52.124;6.018;2023-08-08T02:52:21;14.00;99.90
47600;DHT22;33323;52.124;6.018;2023-08-08T02:54:48;14.00;99.90
47600;DHT22;33323;52.124;6.018;2023-08-08T02:57:16;14.00;99.90
47600;DHT22;33323;52.124;6.018;2023-08-08T02:59:43;14.00;99.90
47600;DHT22;33323;52.124;6.018;2023-08-08T03:02:10;14.00;99.90
47600;DHT22;33323;52.124;6.018;2023-08-08T03:04:39;14.00;99.90
47600;DHT22;33323;52.124;6.018;2023-08-08T03:07:07;14.00;99.90
47600;DHT22;33323;52.124;6.018;2023-08-08T03:09:36;13.90;99.90
47600;DHT22;33323;52.124;6.018;2023-08-08T03:12:04;13.90;99.90
47600;DHT22;33323;52.124;6.018;2023-08-08T03:14:33;13.90;99.90
47600;DHT22;33323;52.124;6.018;2023-08-08T03:17:02;13.90;99.90
47600;DHT22;33323;52.124;6.018;2023-08-08T03:19:30;13.90;99.90
47600;DHT22;33323;52.124;6.018;2023-08-08T03:22:00;14.00;99.90
47600;DHT22;33323;52.124;6.018;2023-08-08T03:24:27;13.90;99.90
47600;DHT22;33323;52.124;6.018;2023-08-08T03:26:54;13.90;99.90
47600;DHT22;33323;52.124;6.018;2023-08-08T03:29:21;14.00;99.90
47600;DHT22;33323;52.124;6.018;2023-08-08T03:31:48;14.00;99.90
47600;DHT22;33323;52.124;6.018;2023-08-08T03:34:16;14.00;99.90
47600;DHT22;33323;52.124;6.018;2023-08-08T03:36:44;14.00;99.90
47600;DHT22;33323;52.124;6.018;2023-08-08T03:39:11;14.00;99.90
47600;DHT22;33323;52.124;6.018;2023-08-08T03:41:38;14.00;99.90
47600;DHT22;33323;52.124;6.018;2023-08-08T03:44:05;14.00;99.90
47600;DHT22;33323;52.124;6.018;2023-08-08T03:46:33;14.10;99.90
47600;DHT22;33323;52.124;6.018;2023-08-08T03:49:01;14.10;99.90
47600;DHT22;33323;52.124;6.018;2023-08-08T03:51:29;14.00;99.90
47600;DHT22;33323;52.124;6.018;2023-08-08T03:53:56;14.00;99.90
47600;DHT22;33323;52.124;6.018;2023-08-08T03:56:24;14.00;99.90
47600;DHT22;33323;52.124;6.018;2023-08-08T03:58:52;14.00;99.90
47600;DHT22;33323;52.124;6.018;2023-08-08T04:01:20;14.00;99.90
47600;DHT22;33323;52.124;6.018;2023-08-08T04:03:48;14.00;99.90
47600;DHT22;33323;52.124;6.018;2023-08-08T04:06:15;14.00;99.90
47600;DHT22;33323;52.124;6.018;2023-08-08T04:08:42;14.00;99.90
47600;DHT22;33323;52.124;6.018;2023-08-08T04:11:09;14.00;99.90
47600;DHT22;33323;52.124;6.018;2023-08-08T04:13:36;14.00;99.90
47600;DHT22;33323;52.124;6.018;2023-08-08T04:16:03;13.90;99.90
47600;DHT22;33323;52.124;6.018;2023-08-08T04:18:30;13.90;99.90
47600;DHT22;33323;52.124;6.018;2023-08-08T04:20:57;14.10;99.90
47600;DHT22;33323;52.124;6.018;2023-08-08T04:23:24;14.00;99.90
47600;DHT22;33323;52.124;6.018;2023-08-08T04:25:53;14.00;99.90
47600;DHT22;33323;52.124;6.018;2023-08-08T04:28:20;14.00;99.90
47600;DHT22;33323;52.124;6.018;2023-08-08T04:30:47;14.00;99.90
47600;DHT22;33323;52.124;6.018;2023-08-08T04:33:14;14.00;99.90
47600;DHT22;33323;52.124;6.018;2023-08-08T04:35:42;14.10;99.90
47600;DHT22;33323;52.124;6.018;2023-08-08T04:38:09;14.10;99.90
47600;DHT22;33323;52.124;6.018;2023-08-08T04:40:36;14.10;99.90
47600;DHT22;33323;52.124;6.018;2023-08-08T04:43:05;14.10;99.90
47600;DHT22;33323;52.124;6.018;2023-08-08T04:45:32;14.10;99.90
47600;DHT22;33323;52.124;6.018;2023-08-08T04:48:00;14.10;99.90
47600;DHT22;33323;52.124;6.018;2023-08-08T04:50:27;14.10;99.90
47600;DHT22;33323;52.124;6.018;2023-08-08T04:52:55;14.10;99.90
47600;DHT22;33323;52.124;6.018;2023-08-08T04:55:22;14.10;99.90
47600;DHT22;33323;52.124;6.018;2023-08-08T04:57:49;14.10;99.90
47600;DHT22;33323;52.124;6.018;2023-08-08T05:00:16;14.10;99.90
47600;DHT22;33323;52.124;6.018;2023-08-08T05:02:43;14.10;99.90
47600;DHT22;33323;52.124;6.018;2023-08-08T05:05:10;14.10;99.90
47600;DHT22;33323;52.124;6.018;2023-08-08T05:07:38;14.10;99.90
47600;DHT22;33323;52.124;6.018;2023-08-08T05:10:05;14.10;99.90
47600;DHT22;33323;52.124;6.018;2023-08-08T05:12:32;14.20;99.90
47600;DHT22;33323;52.124;6.018;2023-08-08T05:14:59;14.20;99.90
47600;DHT22;33323;52.124;6.018;2023-08-08T05:17:27;14.20;99.90
47600;DHT22;33323;52.124;6.018;2023-08-08T05:19:55;14.30;99.90
47600;DHT22;33323;52.124;6.018;2023-08-08T05:22:22;14.30;99.90
47600;DHT22;33323;52.124;6.018;2023-08-08T05:24:49;14.30;99.90
47600;DHT22;33323;52.124;6.018;2023-08-08T05:27:16;14.30;99.90
47600;DHT22;33323;52.124;6.018;2023-08-08T05:29:43;14.40;99.90
47600;DHT22;33323;52.124;6.018;2023-08-08T05:32:10;14.40;99.90
47600;DHT22;33323;52.124;6.018;2023-08-08T05:34:37;14.50;99.90
47600;DHT22;33323;52.124;6.018;2023-08-08T05:37:04;14.60;99.90
47600;DHT22;33323;52.124;6.018;2023-08-08T05:39:43;14.70;99.90
47600;DHT22;33323;52.124;6.018;2023-08-08T05:42:11;14.90;99.90
47600;DHT22;33323;52.124;6.018;2023-08-08T05:44:38;15.00;99.90
47600;DHT22;33323;52.124;6.018;2023-08-08T05:47:06;15.10;99.90
47600;DHT22;33323;52.124;6.018;2023-08-08T05:49:33;15.20;99.90
47600;DHT22;33323;52.124;6.018;2023-08-08T05:52:01;15.20;99.90
47600;DHT22;33323;52.124;6.018;2023-08-08T05:54:29;15.30;99.90
47600;DHT22;33323;52.124;6.018;2023-08-08T05:56:56;15.60;99.90
47600;DHT22;33323;52.124;6.018;2023-08-08T05:59:24;16.00;99.90
47600;DHT22;33323;52.124;6.018;2023-08-08T06:01:51;16.40;99.90
47600;DHT22;33323;52.124;6.018;2023-08-08T06:04:18;16.50;99.90
47600;DHT22;33323;52.124;6.018;2023-08-08T06:06:45;16.30;99.90
47600;DHT22;33323;52.124;6.018;2023-08-08T06:09:16;16.00;99.90
47600;DHT22;33323;52.124;6.018;2023-08-08T06:11:43;15.80;99.90
47600;DHT22;33323;52.124;6.018;2023-08-08T06:14:11;15.70;99.90
47600;DHT22;33323;52.124;6.018;2023-08-08T06:16:38;15.90;99.90
47600;DHT22;33323;52.124;6.018;2023-08-08T06:19:05;16.50;99.90
47600;DHT22;33323;52.124;6.018;2023-08-08T06:21:32;17.00;99.90
47600;DHT22;33323;52.124;6.018;2023-08-08T06:23:59;17.60;99.90
47600;DHT22;33323;52.124;6.018;2023-08-08T06:26:27;18.00;99.90
47600;DHT22;33323;52.124;6.018;2023-08-08T06:28:54;18.30;99.90
47600;DHT22;33323;52.124;6.018;2023-08-08T06:31:21;18.60;99.90
47600;DHT22;33323;52.124;6.018;2023-08-08T06:33:49;19.00;99.90
47600;DHT22;33323;52.124;6.018;2023-08-08T06:36:16;19.40;99.90
47600;DHT22;33323;52.124;6.018;2023-08-08T06:38:43;19.70;99.90
47600;DHT22;33323;52.124;6.018;2023-08-08T06:41:11;19.80;99.90
47600;DHT22;33323;52.124;6.018;2023-08-08T06:43:39;19.70;99.90
47600;DHT22;33323;52.124;6.018;2023-08-08T06:46:06;19.80;99.90
47600;DHT22;33323;52.124;6.018;2023-08-08T06:48:33;19.80;99.90
47600;DHT22;33323;52.124;6.018;2023-08-08T06:51:00;20.00;99.90
47600;DHT22;33323;52.124;6.018;2023-08-08T06:53:27;20.30;99.90
47600;DHT22;33323;52.124;6.018;2023-08-08T06:55:54;20.50;99.90
47600;DHT22;33323;52.124;6.018;2023-08-08T06:58:21;21.00;99.90
47600;DHT22;33323;52.124;6.018;2023-08-08T07:00:50;21.20;99.90
47600;DHT22;33323;52.124;6.018;2023-08-08T07:03:18;21.30;99.90
47600;DHT22;33323;52.124;6.018;2023-08-08T07:05:45;21.20;99.90
47600;DHT22;33323;52.124;6.018;2023-08-08T07:08:14;21.10;99.90
47600;DHT22;33323;52.124;6.018;2023-08-08T07:10:41;21.10;99.90
47600;DHT22;33323;52.124;6.018;2023-08-08T07:13:08;21.10;99.90
47600;DHT22;33323;52.124;6.018;2023-08-08T07:15:35;21.10;99.90
47600;DHT22;33323;52.124;6.018;2023-08-08T07:18:03;21.00;99.90
47600;DHT22;33323;52.124;6.018;2023-08-08T07:20:31;20.90;99.90
47600;DHT22;33323;52.124;6.018;2023-08-08T07:22:58;20.90;99.90
47600;DHT22;33323;52.124;6.018;2023-08-08T07:25:27;20.90;99.90
47600;DHT22;33323;52.124;6.018;2023-08-08T07:27:54;20.80;99.90
47600;DHT22;33323;52.124;6.018;2023-08-08T07:30:21;20.50;99.90
47600;DHT22;33323;52.124;6.018;2023-08-08T07:32:48;20.30;99.90
47600;DHT22;33323;52.124;6.018;2023-08-08T07:35:15;20.10;99.90
47600;DHT22;33323;52.124;6.018;2023-08-08T07:37:42;20.10;99.90
47600;DHT22;33323;52.124;6.018;2023-08-08T07:40:17;20.00;99.90
47600;DHT22;33323;52.124;6.018;2023-08-08T07:42:47;20.10;99.90
47600;DHT22;33323;52.124;6.018;2023-08-08T07:45:15;20.00;99.90
47600;DHT22;33323;52.124;6.018;2023-08-08T07:47:43;20.40;99.90
47600;DHT22;33323;52.124;6.018;2023-08-08T07:50:11;20.60;99.90
47600;DHT22;33323;52.124;6.018;2023-08-08T07:52:38;20.60;99.90
47600;DHT22;33323;52.124;6.018;2023-08-08T07:55:06;20.60;99.90
47600;DHT22;33323;52.124;6.018;2023-08-08T07:57:34;21.00;99.90
47600;DHT22;33323;52.124;6.018;2023-08-08T08:00:03;20.90;99.90
47600;DHT22;33323;52.124;6.018;2023-08-08T08:02:43;20.90;99.90
47600;DHT22;33323;52.124;6.018;2023-08-08T08:05:11;20.90;99.90
47600;DHT22;33323;52.124;6.018;2023-08-08T08:07:39;21.20;99.90
47600;DHT22;33323;52.124;6.018;2023-08-08T08:10:08;21.00;99.90
47600;DHT22;33323;52.124;6.018;2023-08-08T08:12:37;20.80;99.90
47600;DHT22;33323;52.124;6.018;2023-08-08T08:15:04;20.40;99.90
47600;DHT22;33323;52.124;6.018;2023-08-08T08:17:32;20.50;99.90
47600;DHT22;33323;52.124;6.018;2023-08-08T08:19:59;20.70;99.90
47600;DHT22;33323;52.124;6.018;2023-08-08T08:22:26;20.90;99.90
47600;DHT22;33323;52.124;6.018;2023-08-08T08:24:54;21.20;99.90
47600;DHT22;33323;52.124;6.018;2023-08-08T08:27:21;21.30;99.90
47600;DHT22;33323;52.124;6.018;2023-08-08T08:29:48;20.60;99.90
47600;DHT22;33323;52.124;6.018;2023-08-08T08:32:15;20.10;99.90
47600;DHT22;33323;52.124;6.018;2023-08-08T08:34:42;20.00;99.90
47600;DHT22;33323;52.124;6.018;2023-08-08T08:37:10;20.10;99.90
47600;DHT22;33323;52.124;6.018;2023-08-08T08:39:37;20.30;99.90
47600;DHT22;33323;52.124;6.018;2023-08-08T08:42:05;20.50;99.90
47600;DHT22;33323;52.124;6.018;2023-08-08T08:44:33;21.00;99.90
47600;DHT22;33323;52.124;6.018;2023-08-08T08:47:05;21.30;99.90
47600;DHT22;33323;52.124;6.018;2023-08-08T08:49:38;21.30;99.90
47600;DHT22;33323;52.124;6.018;2023-08-08T08:52:06;21.10;99.90
47600;DHT22;33323;52.124;6.018;2023-08-08T08:54:33;21.50;99.90
47600;DHT22;33323;52.124;6.018;2023-08-08T08:57:00;21.30;99.90
47600;DHT22;33323;52.124;6.018;2023-08-08T08:59:27;21.40;99.90
47600;DHT22;33323;52.124;6.018;2023-08-08T09:01:55;21.70;99.90
47600;DHT22;33323;52.124;6.018;2023-08-08T09:04:23;22.10;99.90
47600;DHT22;33323;52.124;6.018;2023-08-08T09:06:51;22.10;99.90
47600;DHT22;33323;52.124;6.018;2023-08-08T09:09:18;21.70;99.90
47600;DHT22;33323;52.124;6.018;2023-08-08T09:11:51;21.30;99.90
47600;DHT22;33323;52.124;6.018;2023-08-08T09:14:25;21.10;99.90
47600;DHT22;33323;52.124;6.018;2023-08-08T09:16:53;21.40;99.90
47600;DHT22;33323;52.124;6.018;2023-08-08T09:19:21;21.40;99.90
47600;DHT22;33323;52.124;6.018;2023-08-08T09:21:49;21.30;99.90
47600;DHT22;33323;52.124;6.018;2023-08-08T09:24:18;21.20;99.90
47600;DHT22;33323;52.124;6.018;2023-08-08T09:26:45;21.10;99.90
47600;DHT22;33323;52.124;6.018;2023-08-08T09:29:14;21.40;99.90
47600;DHT22;33323;52.124;6.018;2023-08-08T09:31:42;21.70;99.90
47600;DHT22;33323;52.124;6.018;2023-08-08T09:34:09;21.70;99.90
47600;DHT22;33323;52.124;6.018;2023-08-08T09:36:36;21.50;99.90
47600;DHT22;33323;52.124;6.018;2023-08-08T09:39:04;21.20;99.90
47600;DHT22;33323;52.124;6.018;2023-08-08T09:41:34;21.30;99.90
47600;DHT22;33323;52.124;6.018;2023-08-08T09:44:02;21.00;99.90
47600;DHT22;33323;52.124;6.018;2023-08-08T09:46:30;21.70;99.90
47600;DHT22;33323;52.124;6.018;2023-08-08T09:48:58;21.90;99.90
47600;DHT22;33323;52.124;6.018;2023-08-08T09:51:26;21.90;99.90
47600;DHT22;33323;52.124;6.018;2023-08-08T09:53:55;21.80;99.90
47600;DHT22;33323;52.124;6.018;2023-08-08T09:56:23;21.70;99.90
47600;DHT22;33323;52.124;6.018;2023-08-08T09:58:52;22.20;99.90
47600;DHT22;33323;52.124;6.018;2023-08-08T10:01:20;22.20;99.90
47600;DHT22;33323;52.124;6.018;2023-08-08T10:03:51;22.60;99.90
47600;DHT22;33323;52.124;6.018;2023-08-08T10:06:18;22.60;99.90
47600;DHT22;33323;52.124;6.018;2023-08-08T10:08:46;22.40;99.90
47600;DHT22;33323;52.124;6.018;2023-08-08T10:11:14;22.40;99.90
47600;DHT22;33323;52.124;6.018;2023-08-08T10:13:49;22.10;99.90
47600;DHT22;33323;52.124;6.018;2023-08-08T10:16:17;21.70;99.90
47600;DHT22;33323;52.124;6.018;2023-08-08T10:18:46;21.50;99.90
47600;DHT22;33323;52.124;6.018;2023-08-08T10:21:24;21.40;99.90
47600;DHT22;33323;52.124;6.018;2023-08-08T10:24:06;21.40;99.90
47600;DHT22;33323;52.124;6.018;2023-08-08T10:26:50;21.80;99.90
47600;DHT22;33323;52.124;6.018;2023-08-08T10:29:18;22.00;99.90
47600;DHT22;33323;52.124;6.018;2023-08-08T10:32:04;22.50;99.90
47600;DHT22;33323;52.124;6.018;2023-08-08T10:34:46;22.80;99.90
47600;DHT22;33323;52.124;6.018;2023-08-08T10:37:17;22.30;99.90
47600;DHT22;33323;52.124;6.018;2023-08-08T10:39:52;21.80;99.90
47600;DHT22;33323;52.124;6.018;2023-08-08T10:42:22;21.30;99.90
47600;DHT22;33323;52.124;6.018;2023-08-08T10:44:55;21.00;99.90
47600;DHT22;33323;52.124;6.018;2023-08-08T10:47:36;20.80;99.90
47600;DHT22;33323;52.124;6.018;2023-08-08T10:50:14;21.30;99.90
47600;DHT22;33323;52.124;6.018;2023-08-08T10:55:23;21.60;99.90
47600;DHT22;33323;52.124;6.018;2023-08-08T10:58:07;21.90;99.90
47600;DHT22;33323;52.124;6.018;2023-08-08T11:00:40;21.70;99.90
47600;DHT22;33323;52.124;6.018;2023-08-08T11:03:08;21.20;99.90
47600;DHT22;33323;52.124;6.018;2023-08-08T11:05:37;21.50;99.90
47600;DHT22;33323;52.124;6.018;2023-08-08T11:08:06;21.50;99.90
47600;DHT22;33323;52.124;6.018;2023-08-08T11:10:40;21.10;99.90
47600;DHT22;33323;52.124;6.018;2023-08-08T11:13:08;21.00;99.90
47600;DHT22;33323;52.124;6.018;2023-08-08T11:15:36;20.80;99.90
47600;DHT22;33323;52.124;6.018;2023-08-08T11:18:06;20.60;99.90
47600;DHT22;33323;52.124;6.018;2023-08-08T11:20:35;20.80;99.90
47600;DHT22;33323;52.124;6.018;2023-08-08T11:23:03;21.10;99.90
47600;DHT22;33323;52.124;6.018;2023-08-08T11:25:40;20.90;99.90
47600;DHT22;33323;52.124;6.018;2023-08-08T11:28:10;21.50;99.90
47600;DHT22;33323;52.124;6.018;2023-08-08T11:30:41;21.50;99.90
47600;DHT22;33323;52.124;6.018;2023-08-08T11:33:14;21.30;99.90
47600;DHT22;33323;52.124;6.018;2023-08-08T11:35:45;21.20;99.90
47600;DHT22;33323;52.124;6.018;2023-08-08T11:38:14;21.30;99.90
47600;DHT22;33323;52.124;6.018;2023-08-08T11:40:42;21.30;99.90
47600;DHT22;33323;52.124;6.018;2023-08-08T11:43:10;21.70;99.90
47600;DHT22;33323;52.124;6.018;2023-08-08T11:45:38;21.80;99.90
47600;DHT22;33323;52.124;6.018;2023-08-08T11:48:08;22.00;99.90
47600;DHT22;33323;52.124;6.018;2023-08-08T11:50:37;22.40;99.90
47600;DHT22;33323;52.124;6.018;2023-08-08T11:53:08;22.50;99.90
47600;DHT22;33323;52.124;6.018;2023-08-08T11:55:36;22.20;99.90
47600;DHT22;33323;52.124;6.018;2023-08-08T11:58:04;22.00;99.90
47600;DHT22;33323;52.124;6.018;2023-08-08T12:00:32;21.80;99.90
47600;DHT22;33323;52.124;6.018;2023-08-08T12:03:01;21.90;99.90
47600;DHT22;33323;52.124;6.018;2023-08-08T12:05:36;22.30;99.90
47600;DHT22;33323;52.124;6.018;2023-08-08T12:08:07;22.70;99.90
47600;DHT22;33323;52.124;6.018;2023-08-08T12:10:35;22.60;99.90
47600;DHT22;33323;52.124;6.018;2023-08-08T12:13:03;22.50;99.90
47600;DHT22;33323;52.124;6.018;2023-08-08T12:15:35;22.30;99.90
47600;DHT22;33323;52.124;6.018;2023-08-08T12:18:03;22.10;99.90
47600;DHT22;33323;52.124;6.018;2023-08-08T12:20:31;22.00;99.90
47600;DHT22;33323;52.124;6.018;2023-08-08T12:22:59;21.60;99.90
47600;DHT22;33323;52.124;6.018;2023-08-08T12:25:27;21.20;99.90
47600;DHT22;33323;52.124;6.018;2023-08-08T12:27:54;21.10;99.90
47600;DHT22;33323;52.124;6.018;2023-08-08T12:30:22;21.00;99.90
47600;DHT22;33323;52.124;6.018;2023-08-08T12:32:49;20.80;99.90
47600;DHT22;33323;52.124;6.018;2023-08-08T12:35:16;20.90;99.90
47600;DHT22;33323;52.124;6.018;2023-08-08T12:37:43;20.70;99.90
47600;DHT22;33323;52.124;6.018;2023-08-08T12:40:11;20.60;99.90
47600;DHT22;33323;52.124;6.018;2023-08-08T12:42:38;20.80;99.90
47600;DHT22;33323;52.124;6.018;2023-08-08T12:45:07;20.60;99.90
47600;DHT22;33323;52.124;6.018;2023-08-08T12:47:34;20.90;99.90
47600;DHT22;33323;52.124;6.018;2023-08-08T12:50:06;21.20;99.90
47600;DHT22;33323;52.124;6.018;2023-08-08T12:52:35;21.20;99.90
47600;DHT22;33323;52.124;6.018;2023-08-08T12:55:03;21.00;99.90
47600;DHT22;33323;52.124;6.018;2023-08-08T12:57:31;20.90;99.90
47600;DHT22;33323;52.124;6.018;2023-08-08T12:59:58;20.90;99.90
47600;DHT22;33323;52.124;6.018;2023-08-08T13:02:25;20.50;99.90
47600;DHT22;33323;52.124;6.018;2023-08-08T13:04:53;20.40;99.90
47600;DHT22;33323;52.124;6.018;2023-08-08T13:07:20;20.40;99.90
47600;DHT22;33323;52.124;6.018;2023-08-08T13:09:47;20.50;99.90
47600;DHT22;33323;52.124;6.018;2023-08-08T13:12:14;20.50;99.90
47600;DHT22;33323;52.124;6.018;2023-08-08T13:14:41;20.60;99.90
47600;DHT22;33323;52.124;6.018;2023-08-08T13:17:08;20.70;99.90
47600;DHT22;33323;52.124;6.018;2023-08-08T13:19:36;21.30;99.90
47600;DHT22;33323;52.124;6.018;2023-08-08T13:22:03;21.50;99.90
47600;DHT22;33323;52.124;6.018;2023-08-08T13:24:30;21.40;99.90
47600;DHT22;33323;52.124;6.018;2023-08-08T13:26:57;21.20;99.90
47600;DHT22;33323;52.124;6.018;2023-08-08T13:29:24;21.10;99.90
47600;DHT22;33323;52.124;6.018;2023-08-08T13:31:52;21.10;99.90
47600;DHT22;33323;52.124;6.018;2023-08-08T13:34:19;20.90;99.90
47600;DHT22;33323;52.124;6.018;2023-08-08T13:36:46;20.80;99.90
47600;DHT22;33323;52.124;6.018;2023-08-08T13:39:14;20.70;99.90
47600;DHT22;33323;52.124;6.018;2023-08-08T13:41:41;20.50;99.90
47600;DHT22;33323;52.124;6.018;2023-08-08T13:44:08;20.20;99.90
47600;DHT22;33323;52.124;6.018;2023-08-08T13:46:35;20.30;99.90
47600;DHT22;33323;52.124;6.018;2023-08-08T13:49:03;20.30;99.90
47600;DHT22;33323;52.124;6.018;2023-08-08T13:51:30;20.30;99.90
47600;DHT22;33323;52.124;6.018;2023-08-08T13:53:57;20.20;99.90
47600;DHT22;33323;52.124;6.018;2023-08-08T13:56:24;20.60;99.90
47600;DHT22;33323;52.124;6.018;2023-08-08T13:58:51;21.10;99.90
47600;DHT22;33323;52.124;6.018;2023-08-08T14:01:19;21.00;99.90
47600;DHT22;33323;52.124;6.018;2023-08-08T14:03:46;20.80;99.90
47600;DHT22;33323;52.124;6.018;2023-08-08T14:06:13;20.60;99.90
47600;DHT22;33323;52.124;6.018;2023-08-08T14:08:41;20.60;99.90
47600;DHT22;33323;52.124;6.018;2023-08-08T14:11:08;20.40;99.90
47600;DHT22;33323;52.124;6.018;2023-08-08T14:13:35;20.30;99.90
47600;DHT22;33323;52.124;6.018;2023-08-08T14:16:04;20.20;99.90
47600;DHT22;33323;52.124;6.018;2023-08-08T14:18:31;20.10;99.90
47600;DHT22;33323;52.124;6.018;2023-08-08T14:20:58;20.30;99.90
47600;DHT22;33323;52.124;6.018;2023-08-08T14:23:26;20.40;99.90
47600;DHT22;33323;52.124;6.018;2023-08-08T14:25:53;20.70;99.90
47600;DHT22;33323;52.124;6.018;2023-08-08T14:28:20;20.70;99.90
47600;DHT22;33323;52.124;6.018;2023-08-08T14:30:49;20.80;99.90
47600;DHT22;33323;52.124;6.018;2023-08-08T14:33:16;20.90;99.90
47600;DHT22;33323;52.124;6.018;2023-08-08T14:35:44;20.90;99.90
47600;DHT22;33323;52.124;6.018;2023-08-08T14:38:11;21.10;99.90
47600;DHT22;33323;52.124;6.018;2023-08-08T14:40:38;21.00;99.90
47600;DHT22;33323;52.124;6.018;2023-08-08T14:43:06;21.00;99.90
47600;DHT22;33323;52.124;6.018;2023-08-08T14:45:38;20.70;99.90
47600;DHT22;33323;52.124;6.018;2023-08-08T14:48:05;20.40;99.90
47600;DHT22;33323;52.124;6.018;2023-08-08T14:50:33;20.30;99.90
47600;DHT22;33323;52.124;6.018;2023-08-08T14:53:01;20.30;99.90
47600;DHT22;33323;52.124;6.018;2023-08-08T14:55:28;20.20;99.90
47600;DHT22;33323;52.124;6.018;2023-08-08T14:57:56;20.20;99.90
47600;DHT22;33323;52.124;6.018;2023-08-08T15:00:23;20.30;99.90
47600;DHT22;33323;52.124;6.018;2023-08-08T15:02:50;20.60;99.90
47600;DHT22;33323;52.124;6.018;2023-08-08T15:05:17;20.70;99.90
47600;DHT22;33323;52.124;6.018;2023-08-08T15:07:44;20.60;99.90
47600;DHT22;33323;52.124;6.018;2023-08-08T15:10:11;20.40;99.90
47600;DHT22;33323;52.124;6.018;2023-08-08T15:12:39;20.10;99.90
47600;DHT22;33323;52.124;6.018;2023-08-08T15:15:08;20.00;99.90
47600;DHT22;33323;52.124;6.018;2023-08-08T15:17:35;20.00;99.90
47600;DHT22;33323;52.124;6.018;2023-08-08T15:20:03;19.80;99.90
47600;DHT22;33323;52.124;6.018;2023-08-08T15:22:31;19.80;99.90
47600;DHT22;33323;52.124;6.018;2023-08-08T15:24:58;20.10;99.90
47600;DHT22;33323;52.124;6.018;2023-08-08T15:27:25;20.30;99.90
47600;DHT22;33323;52.124;6.018;2023-08-08T15:29:52;20.20;99.90
47600;DHT22;33323;52.124;6.018;2023-08-08T15:32:19;20.10;99.90
47600;DHT22;33323;52.124;6.018;2023-08-08T15:34:46;20.00;99.90
47600;DHT22;33323;52.124;6.018;2023-08-08T15:37:13;19.80;99.90
47600;DHT22;33323;52.124;6.018;2023-08-08T15:39:40;19.90;99.90